createdAt,value
2019-06-20T00:02:03.591Z,97071.29
2019-06-20T00:04:35.867Z,97067.98
2019-06-20T00:07:07.752Z,97063.73
2019-06-20T00:09:39.871Z,97070.84
2019-06-20T00:12:12.025Z,97071.63
2019-06-20T00:14:45.448Z,97068.07
2019-06-20T00:17:17.222Z,97065.35
2019-06-20T00:19:49.146Z,97063.30
2019-06-20T00:22:20.888Z,97064.07
2019-06-20T00:24:57.128Z,97062.31
2019-06-20T00:27:28.862Z,97060.66
2019-06-20T00:30:00.714Z,97059.01
2019-06-20T00:32:32.635Z,97056.16
2019-06-20T00:35:04.785Z,97054.91
2019-06-20T00:37:36.675Z,97056.37
2019-06-20T00:40:10.175Z,97043.56
2019-06-20T00:42:42.040Z,97039.97
2019-06-20T00:45:14.670Z,97039.81
2019-06-20T00:47:46.662Z,97041.47
2019-06-20T00:50:19.138Z,97046.05
2019-06-20T00:52:50.920Z,97042.16
2019-06-20T00:55:22.950Z,97042.64
2019-06-20T00:57:54.619Z,97036.13
2019-06-20T01:00:26.713Z,97034.17
2019-06-20T01:02:59.088Z,97039.42
2019-06-20T01:05:30.948Z,97038.27
2019-06-20T01:08:02.908Z,97038.74
2019-06-20T01:10:34.908Z,97033.34
2019-06-20T01:13:06.919Z,97037.25
2019-06-20T01:15:39.080Z,97030.68
2019-06-20T01:18:10.919Z,97030.91
2019-06-20T01:20:42.871Z,97029.89
2019-06-20T01:23:15.125Z,97025.42
2019-06-20T01:25:47.339Z,97023.80
2019-06-20T01:28:19.272Z,97023.33
2019-06-20T01:30:51.062Z,97022.34
2019-06-20T01:33:22.988Z,97024.64
2019-06-20T01:35:55.501Z,97023.99
2019-06-20T01:38:27.524Z,97019.16
2019-06-20T01:40:59.309Z,97019.61
2019-06-20T01:43:49.163Z,97017.12
2019-06-20T01:46:09.310Z,97022.05
2019-06-20T01:48:41.553Z,97020.48
2019-06-20T01:51:13.329Z,97021.01
2019-06-20T01:53:45.294Z,97024.80
2019-06-20T01:56:17.269Z,97025.77
2019-06-20T01:58:49.296Z,97021.69
2019-06-20T02:01:21.201Z,97028.21
2019-06-20T02:03:53.722Z,97029.08
2019-06-20T02:06:25.645Z,97025.62
2019-06-20T02:08:57.929Z,97027.43
2019-06-20T02:11:32.273Z,97025.81
2019-06-20T02:14:07.527Z,97030.39
2019-06-20T02:16:39.290Z,97028.14
2019-06-20T02:19:11.846Z,97031.45
2019-06-20T02:21:43.741Z,97035.39
2019-06-20T02:24:19.409Z,97032.42
2019-06-20T02:26:51.149Z,97037.41
2019-06-20T02:29:24.063Z,97031.48
2019-06-20T02:31:56.276Z,97034.41
2019-06-20T02:34:28.332Z,97039.52
2019-06-20T02:37:00.330Z,97033.13
2019-06-20T02:39:33.286Z,97033.32
2019-06-20T02:42:05.682Z,97029.05
2019-06-20T02:44:37.445Z,97035.13
2019-06-20T02:47:09.994Z,97036.93
2019-06-20T02:49:43.029Z,97030.73
2019-06-20T02:52:16.311Z,97035.61
2019-06-20T02:54:50.082Z,97032.34
2019-06-20T02:57:22.142Z,97027.92
2019-06-20T02:59:54.772Z,97032.50
2019-06-20T03:02:27.045Z,97033.32
2019-06-20T03:04:58.967Z,97033.77
2019-06-20T03:07:30.699Z,97032.83
2019-06-20T03:10:03.311Z,97032.46
2019-06-20T03:12:35.287Z,97027.84
2019-06-20T03:15:13.183Z,97030.77
2019-06-20T03:17:46.540Z,97026.50
2019-06-20T03:20:19.125Z,97037.27
2019-06-20T03:22:54.684Z,97044.13
2019-06-20T03:25:29.115Z,97041.46
2019-06-20T03:28:00.973Z,97036.31
2019-06-20T03:30:35.360Z,97043.70
2019-06-20T03:33:11.239Z,97045.65
2019-06-20T03:35:46.671Z,97038.16
2019-06-20T03:38:18.521Z,97040.49
2019-06-20T03:40:50.973Z,97042.89
2019-06-20T03:43:23.740Z,97043.34
2019-06-20T03:45:55.936Z,97046.70
2019-06-20T03:48:27.769Z,97047.91
2019-06-20T03:50:59.325Z,97047.12
2019-06-20T03:53:31.592Z,97047.31
2019-06-20T03:56:04.112Z,97024.84
2019-06-20T03:58:37.563Z,97051.25
2019-06-20T04:01:09.530Z,97055.30
2019-06-20T04:03:42.206Z,97047.43
2019-06-20T04:06:14.185Z,97049.22
2019-06-20T04:08:46.113Z,97049.74
2019-06-20T04:11:19.053Z,97055.69
2019-06-20T04:13:52.141Z,97063.02
2019-06-20T04:16:24.080Z,97055.51
2019-06-20T04:18:55.956Z,97058.05
2019-06-20T04:21:28.098Z,97061.09
2019-06-20T04:24:00.317Z,97064.61
2019-06-20T04:26:32.122Z,97069.05
2019-06-20T04:29:04.153Z,97065.55
2019-06-20T04:31:37.053Z,97066.28
2019-06-20T04:34:10.029Z,97065.00
2019-06-20T04:36:42.710Z,97061.16
2019-06-20T04:39:19.294Z,97066.77
2019-06-20T04:41:49.770Z,97073.13
2019-06-20T04:44:21.753Z,97068.88
2019-06-20T04:46:59.361Z,97064.06
2019-06-20T04:49:32.826Z,97071.36
2019-06-20T04:52:05.167Z,97068.48
2019-06-20T04:54:37.602Z,97067.02
2019-06-20T04:57:09.673Z,97072.39
2019-06-20T04:59:42.642Z,97068.69
2019-06-20T05:02:16.047Z,97069.18
2019-06-20T05:04:50.122Z,97072.92
2019-06-20T05:07:23.138Z,97071.34
2019-06-20T05:09:55.334Z,97072.05
2019-06-20T05:12:27.230Z,97071.69
2019-06-20T05:15:01.509Z,97068.20
2019-06-20T05:17:34.243Z,97075.46
2019-06-20T05:20:06.370Z,97073.28
2019-06-20T05:22:39.145Z,97076.44
2019-06-20T05:25:13.312Z,97075.42
2019-06-20T05:27:45.216Z,97076.47
2019-06-20T05:30:17.368Z,97078.69
2019-06-20T05:32:49.637Z,97075.82
2019-06-20T05:35:21.453Z,97081.96
2019-06-20T05:37:53.263Z,97080.09
2019-06-20T05:40:27.962Z,97087.02
2019-06-20T05:43:00.408Z,97088.22
2019-06-20T05:45:32.406Z,97084.35
2019-06-20T05:48:05.510Z,97088.70
2019-06-20T05:50:37.578Z,97092.16
2019-06-20T05:53:09.671Z,97096.61
2019-06-20T05:55:41.656Z,97093.73
2019-06-20T05:58:13.537Z,97098.12
2019-06-20T06:00:45.371Z,97096.47
2019-06-20T06:03:17.211Z,97096.13
2019-06-20T06:05:49.062Z,97100.13
2019-06-20T06:08:21.770Z,97095.45
2019-06-20T06:10:57.254Z,97103.78
2019-06-20T06:13:32.022Z,97096.56
2019-06-20T06:16:04.497Z,97096.39
2019-06-20T06:18:36.348Z,97093.66
2019-06-20T06:21:08.930Z,97090.88
2019-06-20T06:23:41.703Z,97086.43
2019-06-20T06:26:14.231Z,97087.95
2019-06-20T06:28:46.658Z,97084.08
2019-06-20T06:31:21.650Z,97082.67
2019-06-20T06:33:53.396Z,97087.74
2019-06-20T06:36:25.265Z,97088.55
2019-06-20T06:38:58.037Z,97089.27
2019-06-20T06:41:29.933Z,97085.79
2019-06-20T06:44:01.955Z,97088.44
2019-06-20T06:46:44.745Z,97087.39
2019-06-20T06:49:07.706Z,97089.79
2019-06-20T06:51:40.826Z,97089.50
2019-06-20T06:54:13.025Z,97087.95
2019-06-20T06:56:44.837Z,97092.23
2019-06-20T06:59:16.600Z,97091.09
2019-06-20T07:01:48.554Z,97097.45
2019-06-20T07:04:20.339Z,97088.23
2019-06-20T07:06:52.304Z,97093.97
2019-06-20T07:09:25.571Z,97092.47
2019-06-20T07:11:57.884Z,97090.88
2019-06-20T07:14:30.230Z,97089.45
2019-06-20T07:17:02.096Z,97093.70
2019-06-20T07:19:35.101Z,97089.50
2019-06-20T07:22:07.798Z,97089.31
2019-06-20T07:24:40.038Z,97087.43
2019-06-20T07:27:12.288Z,97081.53
2019-06-20T07:29:45.478Z,97079.17
2019-06-20T07:32:18.420Z,97081.05
2019-06-20T07:34:52.318Z,97074.48
2019-06-20T07:37:25.803Z,97068.89
2019-06-20T07:39:58.221Z,97070.66
2019-06-20T07:42:31.117Z,97077.47
2019-06-20T07:45:05.529Z,97082.17
2019-06-20T07:47:37.502Z,97086.73
2019-06-20T07:50:11.232Z,97089.48
2019-06-20T07:53:00.938Z,97086.86
2019-06-20T07:55:18.330Z,97089.09
2019-06-20T07:57:50.453Z,97088.89
2019-06-20T08:00:22.569Z,97085.75
2019-06-20T08:02:54.585Z,97081.17
2019-06-20T08:05:26.768Z,97081.84
2019-06-20T08:07:59.481Z,97084.23
2019-06-20T08:10:31.871Z,97083.88
2019-06-20T08:13:04.223Z,97074.89
2019-06-20T08:15:36.329Z,97075.12
2019-06-20T08:18:10.578Z,97077.38
2019-06-20T08:20:42.369Z,97087.02
2019-06-20T08:23:14.292Z,97086.07
2019-06-20T08:25:46.264Z,97079.75
2019-06-20T08:28:19.690Z,97076.83
2019-06-20T08:30:51.945Z,97081.78
2019-06-20T08:33:25.027Z,97078.19
2019-06-20T08:35:58.476Z,97079.47
2019-06-20T08:38:30.815Z,97082.30
2019-06-20T08:41:04.606Z,97086.03
2019-06-20T08:43:36.441Z,97085.50
2019-06-20T08:46:10.471Z,97093.66
2019-06-20T08:48:42.692Z,97097.89
2019-06-20T08:51:14.884Z,97092.19
2019-06-20T08:53:47.014Z,97096.12
2019-06-20T08:56:18.939Z,97097.87
2019-06-20T08:58:52.122Z,97091.08
2019-06-20T09:01:26.015Z,97091.08
2019-06-20T09:03:58.564Z,97092.70
2019-06-20T09:06:30.970Z,97086.24
2019-06-20T09:09:04.377Z,97084.89
2019-06-20T09:11:37.349Z,97092.62
2019-06-20T09:14:09.985Z,97093.54
2019-06-20T09:16:42.394Z,97093.45
2019-06-20T09:19:17.530Z,97090.22
2019-06-20T09:21:52.583Z,97089.63
2019-06-20T09:24:23.740Z,97084.01
2019-06-20T09:26:59.351Z,97093.25
2019-06-20T09:29:41.376Z,97089.31
2019-06-20T09:32:05.128Z,97080.77
2019-06-20T09:34:37.998Z,97076.31
2019-06-20T09:37:10.665Z,97078.79
2019-06-20T09:39:42.907Z,97074.98
2019-06-20T09:42:15.096Z,97076.07
2019-06-20T09:44:47.561Z,97077.62
2019-06-20T09:47:20.660Z,97088.05
2019-06-20T09:49:55.635Z,97086.30
2019-06-20T09:52:26.637Z,97078.87
2019-06-20T09:54:58.487Z,97077.53
2019-06-20T09:57:33.470Z,97067.47
2019-06-20T10:00:10.614Z,97066.27
2019-06-20T10:02:44.271Z,97061.55
2019-06-20T10:05:16.912Z,97065.36
2019-06-20T10:07:50.193Z,97063.80
2019-06-20T10:10:24.229Z,97061.94
2019-06-20T10:12:57.522Z,97053.56
2019-06-20T10:15:30.526Z,97050.38
2019-06-20T10:18:04.059Z,97045.74
2019-06-20T10:20:38.842Z,97043.85
2019-06-20T10:23:10.729Z,97043.32
2019-06-20T10:25:42.691Z,97049.91
2019-06-20T12:30:12.449Z,97096.43
2019-06-20T12:32:44.814Z,97102.31
2019-06-20T12:35:16.664Z,97108.45
2019-06-20T12:37:49.968Z,97113.72
2019-06-20T12:40:25.463Z,97106.91
2019-06-20T12:42:58.127Z,97102.74
2019-06-20T12:45:29.932Z,97092.05
2019-06-20T12:48:01.945Z,97090.80
2019-06-20T12:50:33.908Z,97090.75
2019-06-20T12:53:05.740Z,97093.31
2019-06-20T12:55:38.934Z,97084.89
2019-06-20T12:58:11.459Z,97095.16
2019-06-20T13:00:44.824Z,97091.01
2019-06-20T13:03:17.293Z,97085.19
2019-06-20T13:05:49.223Z,97078.88
2019-06-20T13:08:21.105Z,97074.19
2019-06-20T13:10:52.964Z,97065.63
2019-06-20T13:13:24.703Z,97058.45
2019-06-20T13:15:56.635Z,97056.83
2019-06-20T13:18:28.424Z,97052.77
2019-06-20T13:21:00.648Z,97044.44
2019-06-20T13:23:32.519Z,97042.22
2019-06-20T13:26:04.590Z,97026.84
2019-06-20T13:28:54.067Z,97027.61
2019-06-20T13:31:11.375Z,97031.50
2019-06-20T13:33:44.684Z,97031.00
2019-06-20T13:36:16.800Z,97033.70
2019-06-20T13:38:48.877Z,97041.45
2019-06-20T13:41:20.873Z,97037.33
2019-06-20T13:43:52.655Z,97046.98
2019-06-20T13:46:25.121Z,97051.25
2019-06-20T13:48:57.043Z,97053.62
2019-06-20T13:51:28.921Z,97054.05
2019-06-20T13:54:00.922Z,97058.52
2019-06-20T13:56:32.924Z,97052.85
2019-06-20T13:59:04.881Z,97052.23
2019-06-20T14:01:36.804Z,97054.44
2019-06-20T14:04:09.958Z,97056.11
2019-06-20T14:06:43.547Z,97059.64
2019-06-20T14:09:15.628Z,97059.59
2019-06-20T14:11:47.420Z,97054.38
2019-06-20T14:14:19.331Z,97054.51
2019-06-20T14:16:51.071Z,97048.48
2019-06-20T14:19:23.042Z,97042.11
2019-06-20T14:21:54.808Z,97049.27
2019-06-20T14:24:26.639Z,97046.30
2019-06-20T14:26:58.543Z,97039.58
2019-06-20T14:29:30.400Z,97042.13
2019-06-20T14:32:02.199Z,97038.66
2019-06-20T14:34:34.032Z,97030.00
2019-06-20T14:37:05.970Z,97031.82
2019-06-20T14:39:38.633Z,97035.58
2019-06-20T14:42:10.440Z,97024.31
2019-06-20T14:44:44.107Z,97023.07
2019-06-20T14:47:15.924Z,97021.45
2019-06-20T14:49:48.306Z,97021.08
2019-06-20T14:52:21.373Z,97017.95
2019-06-20T14:54:54.017Z,97022.43
2019-06-20T14:57:26.091Z,97025.69
2019-06-20T14:59:57.875Z,97027.33
2019-06-20T15:02:38.577Z,97028.95
2019-06-20T15:05:02.977Z,97029.20
2019-06-20T15:07:34.836Z,97033.26
2019-06-20T15:10:07.645Z,97037.28
2019-06-20T15:12:39.445Z,97035.10
2019-06-20T15:15:11.276Z,97041.41
2019-06-20T15:17:43.239Z,97041.03
2019-06-20T15:20:15.696Z,97046.34
2019-06-20T15:22:48.935Z,97049.60
2019-06-20T15:25:21.013Z,97042.53
2019-06-20T15:27:53.931Z,97045.96
2019-06-20T15:30:26.354Z,97041.50
2019-06-20T15:33:07.681Z,97044.23
2019-06-20T15:35:31.635Z,97046.68
2019-06-20T15:38:03.386Z,97047.80
2019-06-20T15:40:36.683Z,97049.55
2019-06-20T15:43:08.529Z,97053.04
2019-06-20T15:45:40.489Z,97056.45
2019-06-20T15:48:12.312Z,97052.10
2019-06-20T15:50:44.135Z,97049.46
2019-06-20T15:53:15.924Z,97054.86
2019-06-20T15:55:47.512Z,97045.89
2019-06-20T15:58:19.279Z,97056.73
2019-06-20T16:00:50.835Z,97057.03
2019-06-20T16:03:22.572Z,97051.36
2019-06-20T16:05:54.361Z,97051.45
2019-06-20T16:08:26.114Z,97056.03
2019-06-20T16:10:57.823Z,97061.16
2019-06-20T16:13:29.756Z,97066.53
2019-06-20T16:16:01.580Z,97072.39
2019-06-20T16:18:33.560Z,97067.33
2019-06-20T16:21:05.542Z,97072.69
2019-06-20T16:23:37.511Z,97075.13
2019-06-20T16:26:09.659Z,97073.30
2019-06-20T16:28:41.574Z,97077.27
2019-06-20T16:31:26.508Z,97071.45
2019-06-20T16:33:46.968Z,97078.67
2019-06-20T16:36:18.837Z,97077.84
2019-06-20T16:38:50.805Z,97080.31
2019-06-20T16:41:22.719Z,97078.75
2019-06-20T16:43:54.434Z,97076.77
2019-06-20T16:46:26.434Z,97073.17
2019-06-20T16:48:58.264Z,97078.41
2019-06-20T16:51:30.219Z,97071.86
2019-06-20T16:54:01.916Z,97066.66
2019-06-20T16:56:33.805Z,97066.19
2019-06-20T16:59:05.435Z,97075.86
2019-06-20T17:01:37.344Z,97064.32
2019-06-20T17:04:08.955Z,97066.63
2019-06-20T17:06:40.917Z,97065.71
2019-06-20T17:09:12.606Z,97058.06
2019-06-20T17:11:44.407Z,97052.50
2019-06-20T17:14:16.031Z,97052.36
2019-06-20T17:16:47.765Z,97060.53
2019-06-20T17:19:19.604Z,97056.12
2019-06-20T17:21:51.289Z,97056.20
2019-06-20T17:24:22.927Z,97056.89
2019-06-20T17:26:54.894Z,97059.72
2019-06-20T17:29:28.079Z,97064.80
2019-06-20T17:32:00.003Z,97065.48
2019-06-20T17:34:31.757Z,97063.55
2019-06-20T17:37:03.548Z,97065.52
2019-06-20T17:39:35.361Z,97063.19
2019-06-20T17:42:07.070Z,97065.13
2019-06-20T17:44:38.862Z,97059.42
2019-06-20T17:47:10.685Z,97064.07
2019-06-20T17:49:42.376Z,97061.98
2019-06-20T17:52:14.248Z,97062.88
2019-06-20T17:54:45.948Z,97062.25
2019-06-20T17:57:17.770Z,97058.98
2019-06-20T17:59:50.670Z,97060.86
2019-06-20T18:02:22.380Z,97054.44
2019-06-20T18:04:54.253Z,97058.84
2019-06-20T18:07:25.906Z,97063.06
2019-06-20T18:09:57.773Z,97063.86
2019-06-20T18:12:29.561Z,97070.94
2019-06-20T18:15:01.228Z,97080.98
2019-06-20T18:17:33.043Z,97083.56
2019-06-20T18:20:05.258Z,97084.40
2019-06-20T18:22:37.140Z,97077.76
2019-06-20T18:25:10.012Z,97084.83
2019-06-20T18:27:41.689Z,97088.00
2019-06-20T18:30:15.033Z,97090.30
2019-06-20T18:32:46.802Z,97097.20
2019-06-20T18:35:20.297Z,97103.41
2019-06-20T18:37:52.148Z,97109.77
2019-06-20T18:40:24.507Z,97107.33
2019-06-20T18:42:57.296Z,97113.56
2019-06-20T18:45:28.940Z,97104.95
2019-06-20T18:48:00.863Z,97101.54
2019-06-20T18:50:32.656Z,97101.87
2019-06-20T18:53:04.485Z,97106.49
2019-06-20T18:55:36.296Z,97106.61
2019-06-20T18:58:08.088Z,97112.69
2019-06-20T19:00:39.764Z,97113.81
2019-06-20T19:03:11.773Z,97115.55
2019-06-20T19:05:46.193Z,97115.86
2019-06-20T19:08:18.106Z,97114.91
2019-06-20T19:10:49.885Z,97114.73
2019-06-20T19:13:21.591Z,97111.17
2019-06-20T19:15:53.415Z,97110.04
2019-06-20T19:18:25.271Z,97105.01
2019-06-20T19:20:57.134Z,97110.08
2019-06-20T19:23:29.013Z,97114.89
2019-06-20T19:26:00.787Z,97118.20
2019-06-20T19:28:33.831Z,97113.47
2019-06-20T19:31:05.551Z,97116.78
2019-06-20T19:33:37.362Z,97121.24
2019-06-20T19:36:09.241Z,97119.97
2019-06-20T19:38:41.031Z,97120.80
2019-06-20T19:41:12.832Z,97117.00
2019-06-20T19:43:46.300Z,97122.26
2019-06-20T19:46:18.121Z,97120.91
2019-06-20T19:48:50.113Z,97118.30
2019-06-20T19:51:22.032Z,97119.86
2019-06-20T19:53:53.946Z,97114.91
2019-06-20T19:56:25.883Z,97108.47
2019-06-20T19:58:57.710Z,97108.95
2019-06-20T20:01:29.543Z,97112.55
2019-06-20T20:04:01.346Z,97118.94
2019-06-20T20:06:33.421Z,97121.11
2019-06-20T20:09:05.901Z,97122.77
2019-06-20T20:11:38.593Z,97122.91
2019-06-20T20:14:10.323Z,97123.41
2019-06-20T20:16:42.252Z,97112.59
2019-06-20T20:19:13.975Z,97120.98
2019-06-20T20:21:45.758Z,97126.30
2019-06-20T20:24:17.521Z,97132.09
2019-06-20T20:26:49.260Z,97129.81
2019-06-20T20:29:21.124Z,97130.47
2019-06-20T20:31:52.901Z,97135.77
2019-06-20T20:34:24.654Z,97124.66
2019-06-20T20:36:56.408Z,97129.58
2019-06-20T20:39:28.427Z,97126.17
2019-06-20T20:42:00.314Z,97129.95
2019-06-20T20:44:32.020Z,97135.23
2019-06-20T20:47:05.282Z,97139.80
2019-06-20T20:49:37.098Z,97145.70
2019-06-20T20:52:09.009Z,97140.75
2019-06-20T20:54:40.812Z,97138.77
2019-06-20T20:57:12.678Z,97133.58
2019-06-20T20:59:44.576Z,97143.59
2019-06-20T21:02:16.402Z,97139.45
2019-06-20T21:04:48.227Z,97138.48
2019-06-20T21:07:20.171Z,97137.63
2019-06-20T21:09:52.060Z,97141.41
2019-06-20T21:12:23.949Z,97140.76
2019-06-20T21:14:55.762Z,97141.39
2019-06-20T21:17:27.782Z,97140.61
2019-06-20T21:19:59.884Z,97148.21
2019-06-20T21:22:31.904Z,97142.98
2019-06-20T21:25:03.689Z,97141.19
2019-06-20T21:27:35.615Z,97131.36
2019-06-20T21:30:08.262Z,97134.95
2019-06-20T21:32:41.451Z,97141.88
2019-06-20T21:35:14.891Z,97142.05
2019-06-20T21:37:47.430Z,97139.62
2019-06-20T21:40:19.396Z,97141.11
2019-06-20T21:42:51.323Z,97148.97
2019-06-20T21:45:23.624Z,97147.53
2019-06-20T21:47:55.432Z,97143.59
2019-06-20T21:50:27.434Z,97138.52
2019-06-20T21:52:59.360Z,97137.22
2019-06-20T21:55:31.252Z,97136.06
2019-06-20T21:58:03.254Z,97129.81
2019-06-20T22:00:40.934Z,97138.34
2019-06-20T22:03:15.517Z,97142.92
2019-06-20T22:05:47.501Z,97142.27
2019-06-20T22:08:19.458Z,97141.29
2019-06-20T22:10:51.204Z,97139.65
2019-06-20T22:13:25.381Z,97135.70
2019-06-20T22:15:57.364Z,97135.22
2019-06-20T22:18:29.256Z,97141.13
2019-06-20T22:21:03.727Z,97148.02
2019-06-20T22:23:35.433Z,97156.88
2019-06-20T22:26:07.600Z,97152.11
2019-06-20T22:28:39.391Z,97144.42
2019-06-20T22:31:11.299Z,97150.97
2019-06-20T22:33:43.270Z,97147.03
2019-06-20T22:36:15.313Z,97148.67
2019-06-20T22:38:47.235Z,97147.22
2019-06-20T22:41:19.240Z,97141.30
2019-06-20T22:43:51.142Z,97145.39
2019-06-20T22:46:22.914Z,97142.28
2019-06-20T22:48:54.761Z,97145.57
2019-06-20T22:51:28.408Z,97150.16
2019-06-20T22:54:01.354Z,97144.59
2019-06-20T22:56:33.396Z,97142.92
2019-06-20T22:59:05.243Z,97143.44
2019-06-20T23:01:37.296Z,97140.48
2019-06-20T23:04:09.383Z,97140.97
2019-06-20T23:06:55.463Z,97140.63
2019-06-20T23:09:14.889Z,97132.75
2019-06-20T23:11:47.009Z,97135.37
2019-06-20T23:14:18.894Z,97135.08
2019-06-20T23:16:50.785Z,97133.42
2019-06-20T23:19:22.566Z,97137.17
2019-06-20T23:21:54.716Z,97133.77
2019-06-20T23:24:26.686Z,97127.52
2019-06-20T23:26:58.696Z,97122.11
2019-06-20T23:29:30.552Z,97124.75
2019-06-20T23:32:02.249Z,97124.41
2019-06-20T23:34:34.163Z,97122.63
2019-06-20T23:37:12.838Z,97120.97
2019-06-20T23:39:39.728Z,97114.13
2019-06-20T23:42:11.652Z,97114.77
2019-06-20T23:44:43.576Z,97115.41
2019-06-20T23:47:15.581Z,97120.15
2019-06-20T23:49:47.503Z,97116.22
2019-06-20T23:52:22.527Z,97117.39
2019-06-20T23:54:54.298Z,97114.42
2019-06-20T23:57:29.222Z,97114.13
